In Rescue
 
Open Full Screen Window  High Contrast Mode
Wind Gusting 21 knots
14
March 01, 2024 1:35 PM PST
Present Weather: Haze
Weather Information
Wind Direction
  190 °
Wind Speed
  14 kt (16 mph)
Wind Gust
  21 kt (24 mph)
Altimeter
29.89 in
Visibility
5 SM
Temperature
13° C
55° F
Dewpoint
10° C
50° F
Humidity
82%
Sky Condition
Overcast @ 7,000 ft
Broken @ 3,200 ft
Scattered @ 2,300 ft
MVFR

METAR KHAF 012135Z AUTO 19014G21KT 5SM HZ SCT023 BKN032 OVC070 13/10 A2989 RMK AO2

FAA Disclaimer: The data displayed is for advisory purposes only and is not to be used for flight planning or operations.